Time;durP1;ratioP1;P1;durP2;ratioP2;P2;SDS_P1;SDS_P2;PMS_P1;PMS_P2;Temp;Humidity;BMP_temperature;BMP_pressure;BME280_temperature;BME280_humidity;BME280_pressure;Samples;Min_cycle;Max_cycle;Signal;HPM_P1;HPM_P2
2024/03/21 00:00:22;;;;;;;10.38;5.97;;;;;;;5.63;100.00;96484.00;1032985;28;20022;-69
2024/03/21 00:00:53;;;;;;;8.88;5.90;;;;;;;5.54;100.00;96471.47;1032457;28;20021;-70
2024/03/21 00:01:23;;;;;;;9.55;6.10;;;;;;;5.52;100.00;96478.66;1022865;28;20035;-69
2024/03/21 00:01:54;;;;;;;12.80;6.53;;;;;;;5.56;100.00;96487.66;1024854;28;20023;-69
2024/03/21 00:02:24;;;;;;;10.30;6.03;;;;;;;5.55;100.00;96486.06;1030889;28;20074;-70
2024/03/21 00:02:56;;;;;;;10.48;6.10;;;;;;;5.53;100.00;96483.66;1026798;28;20392;-70
2024/03/21 00:03:26;;;;;;;13.98;6.63;;;;;;;5.50;100.00;96493.69;1030898;28;20236;-68
2024/03/21 00:03:57;;;;;;;13.20;6.40;;;;;;;5.48;100.00;96490.53;1031242;28;20030;-70
2024/03/21 00:04:28;;;;;;;15.70;6.82;;;;;;;5.45;100.00;96491.72;1022879;28;20038;-70
2024/03/21 00:04:58;;;;;;;12.00;6.25;;;;;;;5.38;100.00;96476.16;1026648;28;20019;-70
2024/03/21 00:05:30;;;;;;;14.52;6.53;;;;;;;5.43;100.00;96491.13;1027110;28;20019;-69
2024/03/21 00:06:00;;;;;;;13.15;6.78;;;;;;;5.40;100.00;96484.56;1027257;28;20015;-70
2024/03/21 00:06:31;;;;;;;12.52;6.95;;;;;;;5.41;100.00;96485.38;1030712;28;20085;-69
2024/03/21 00:07:02;;;;;;;13.00;6.80;;;;;;;5.39;100.00;96487.38;1031726;28;20085;-69
2024/03/21 00:07:33;;;;;;;11.77;6.70;;;;;;;5.35;100.00;96484.38;1030829;28;20470;-69
2024/03/21 00:08:04;;;;;;;13.10;7.55;;;;;;;5.36;100.00;96480.78;1026581;28;20114;-69
2024/03/21 00:08:34;;;;;;;13.15;7.15;;;;;;;5.46;100.00;96488.13;1026370;28;20031;-70
2024/03/21 00:09:08;;;;;;;17.02;7.97;;;;;;;5.52;100.00;96491.69;1034602;28;20495;-69
2024/03/21 00:09:38;;;;;;;11.57;7.50;;;;;;;5.60;100.00;96483.59;1035900;28;20585;-70
2024/03/21 00:10:09;;;;;;;12.75;8.32;;;;;;;5.63;100.00;96485.78;1038328;28;20056;-69
2024/03/21 00:10:39;;;;;;;13.50;7.97;;;;;;;5.63;100.00;96491.00;1031960;28;20037;-70
2024/03/21 00:11:10;;;;;;;13.18;7.63;;;;;;;5.68;100.00;96491.16;1030542;28;20030;-69
2024/03/21 00:11:40;;;;;;;15.70;7.35;;;;;;;5.72;100.00;96489.72;1030921;28;20030;-67
2024/03/21 00:12:11;;;;;;;12.13;7.75;;;;;;;5.74;100.00;96487.72;1029298;28;20026;-70
2024/03/21 00:12:41;;;;;;;14.27;7.28;;;;;;;5.75;100.00;96486.69;1026792;28;20062;-70
2024/03/21 00:13:12;;;;;;;12.45;7.38;;;;;;;5.75;100.00;96496.31;1030649;28;20150;-70
2024/03/21 00:13:42;;;;;;;13.75;7.35;;;;;;;5.74;100.00;96487.72;1032031;28;20038;-68
2024/03/21 00:14:15;;;;;;;15.13;7.07;;;;;;;5.77;100.00;96483.88;1042997;28;20032;-70
2024/03/21 00:14:45;;;;;;;14.00;7.25;;;;;;;5.78;100.00;96485.47;1041618;28;20560;-70
2024/03/21 00:15:16;;;;;;;12.07;7.05;;;;;;;5.74;100.00;96482.50;1034973;28;20057;-70
2024/03/21 00:15:46;;;;;;;13.15;7.28;;;;;;;5.88;100.00;96491.00;1025248;28;20114;-69
2024/03/21 00:16:17;;;;;;;13.40;7.43;;;;;;;5.88;100.00;96491.78;1022983;29;20042;-69
2024/03/21 00:16:48;;;;;;;14.73;8.38;;;;;;;5.91;100.00;96486.16;1022753;29;20035;-70
2024/03/21 00:17:18;;;;;;;12.57;7.72;;;;;;;5.95;100.00;96483.16;1024650;28;20634;-69
2024/03/21 00:17:49;;;;;;;13.13;7.63;;;;;;;6.00;100.00;96491.94;1035024;28;20518;-70
2024/03/21 00:18:19;;;;;;;11.52;7.40;;;;;;;6.03;100.00;96498.50;1030199;28;20015;-68
2024/03/21 00:18:50;;;;;;;16.23;7.63;;;;;;;6.04;100.00;96490.50;1026728;28;20516;-70
2024/03/21 00:19:20;;;;;;;12.82;7.68;;;;;;;6.05;100.00;96488.69;1026771;28;20022;-69
2024/03/21 00:19:51;;;;;;;13.23;7.55;;;;;;;6.08;100.00;96491.66;1030572;28;20090;-70
2024/03/21 00:20:21;;;;;;;15.95;7.32;;;;;;;6.08;100.00;96486.44;1030884;28;20046;-69
2024/03/21 00:20:52;;;;;;;13.05;7.38;;;;;;;6.02;100.00;96473.47;1029553;28;20111;-70
2024/03/21 00:21:22;;;;;;;15.73;8.48;;;;;;;6.10;100.00;96488.81;1030704;28;20023;-69
2024/03/21 00:21:52;;;;;;;14.23;8.27;;;;;;;6.11;100.00;96490.44;1026844;28;20033;-69
2024/03/21 00:22:23;;;;;;;15.70;7.85;;;;;;;6.09;100.00;96484.63;1022713;28;20023;-69
2024/03/21 00:22:53;;;;;;;12.77;7.65;;;;;;;6.07;100.00;96478.81;1029093;28;20023;-69
2024/03/21 00:23:25;;;;;;;13.55;7.47;;;;;;;6.08;100.00;96486.44;1035002;28;20037;-70
2024/03/21 00:23:55;;;;;;;12.63;8.02;;;;;;;6.11;100.00;96485.22;1030782;28;20026;-70
2024/03/21 00:24:26;;;;;;;16.25;8.38;;;;;;;6.09;100.00;96488.03;1035261;28;20026;-69
2024/03/21 00:24:56;;;;;;;12.63;7.53;;;;;;;6.10;100.00;96484.44;1038909;28;20029;-68
2024/03/21 00:25:26;;;;;;;12.13;7.40;;;;;;;6.14;100.00;96482.19;1034926;28;20487;-69
2024/03/21 00:26:00;;;;;;;14.32;8.00;;;;;;;6.19;100.00;96490.13;1030808;28;20035;-68
2024/03/21 00:26:31;;;;;;;14.40;7.78;;;;;;;6.17;100.00;96480.94;1026783;28;20419;-69
2024/03/21 00:27:01;;;;;;;12.90;7.88;;;;;;;6.23;100.00;96480.06;1023422;28;20034;-70
2024/03/21 00:27:32;;;;;;;12.38;7.65;;;;;;;6.18;100.00;96479.94;1023086;28;20031;-69
2024/03/21 00:28:03;;;;;;;14.98;8.02;;;;;;;6.24;100.00;96479.88;1022493;29;20030;-70
2024/03/21 00:28:33;;;;;;;14.95;8.02;;;;;;;6.20;100.00;96476.09;1022449;29;20085;-69
2024/03/21 00:29:04;;;;;;;13.68;7.35;;;;;;;6.28;100.00;96480.22;1023325;28;20023;-69
2024/03/21 00:29:35;;;;;;;13.55;7.43;;;;;;;6.24;100.00;96479.88;1026581;28;20023;-68
2024/03/21 00:30:06;;;;;;;12.02;6.88;;;;;;;6.26;100.00;96479.66;1022518;29;20042;-69
2024/03/21 00:30:36;;;;;;;14.13;7.63;;;;;;;6.26;100.00;96482.25;1026484;28;20439;-69
2024/03/21 00:31:07;;;;;;;14.20;7.22;;;;;;;6.25;100.00;96478.84;1026751;28;20142;-69
2024/03/21 00:31:38;;;;;;;10.93;6.95;;;;;;;6.28;100.00;96475.81;1030892;28;20090;-68
2024/03/21 00:32:10;;;;;;;12.80;7.70;;;;;;;6.28;100.00;96481.03;1030524;28;20526;-68
2024/03/21 00:32:41;;;;;;;12.20;7.45;;;;;;;6.12;100.00;96448.50;1033581;28;20080;-68
2024/03/21 00:33:11;;;;;;;13.65;7.13;;;;;;;6.27;100.00;96482.06;1034896;28;20119;-68
2024/03/21 00:33:47;;;;;;;11.27;7.18;;;;;;;6.25;100.00;96476.25;1034820;28;20081;-68
2024/03/21 00:34:18;;;;;;;11.48;6.85;;;;;;;6.25;100.00;96470.25;1034689;28;20037;-69
2024/03/21 00:34:48;;;;;;;13.27;7.25;;;;;;;6.25;100.00;96478.84;1030778;28;20061;-68
2024/03/21 00:35:18;;;;;;;15.80;7.95;;;;;;;6.23;100.00;96473.03;1027817;28;20034;-69
2024/03/21 00:35:49;;;;;;;13.23;6.97;;;;;;;6.22;100.00;96474.06;1026566;28;20058;-68
2024/03/21 00:36:20;;;;;;;10.75;7.13;;;;;;;6.23;100.00;96480.06;1022760;28;20085;-69
2024/03/21 00:36:50;;;;;;;12.18;7.43;;;;;;;6.20;100.00;96470.88;1022980;28;20031;-68
2024/03/21 00:37:24;;;;;;;14.02;7.85;;;;;;;6.26;100.00;96479.66;1022604;28;20542;-68
2024/03/21 00:37:58;;;;;;;11.45;7.18;;;;;;;6.27;100.00;96474.22;1022596;29;20023;-68
2024/03/21 00:38:29;;;;;;;14.90;7.53;;;;;;;6.25;100.00;96471.03;1021980;29;20031;-67
2024/03/21 00:38:59;;;;;;;11.75;7.35;;;;;;;6.24;100.00;96468.66;1022623;29;20035;-69
2024/03/21 00:39:30;;;;;;;14.13;7.63;;;;;;;6.25;100.00;96478.84;1023438;28;20421;-69
2024/03/21 00:40:00;;;;;;;12.10;7.40;;;;;;;6.25;100.00;96470.25;1026670;28;20392;-68
2024/03/21 00:40:30;;;;;;;13.70;7.35;;;;;;;6.22;100.00;96475.88;1030655;28;20030;-69
2024/03/21 00:41:01;;;;;;;12.07;6.93;;;;;;;6.19;100.00;96477.09;1033796;28;20034;-69
2024/03/21 00:41:31;;;;;;;12.82;7.03;;;;;;;6.17;100.00;96471.34;1030646;28;20046;-68
2024/03/21 00:42:02;;;;;;;15.27;7.45;;;;;;;6.16;100.00;96477.53;1030889;28;20045;-69
2024/03/21 00:42:32;;;;;;;13.57;6.97;;;;;;;6.13;100.00;96472.75;1030562;28;20033;-70
2024/03/21 00:43:03;;;;;;;12.40;7.28;;;;;;;6.08;100.00;96472.63;1030670;28;20034;-68
2024/03/21 00:43:33;;;;;;;11.75;7.15;;;;;;;6.02;100.00;96476.06;1026655;28;20073;-68
2024/03/21 00:44:07;;;;;;;11.65;7.40;;;;;;;5.94;100.00;96468.56;1022559;28;20035;-69
2024/03/21 00:44:37;;;;;;;11.98;7.28;;;;;;;5.88;100.00;96476.16;1026948;28;20054;-69
2024/03/21 00:45:09;;;;;;;14.27;7.68;;;;;;;5.91;100.00;96478.34;1030968;28;20030;-69
2024/03/21 00:45:39;;;;;;;11.80;7.32;;;;;;;5.87;100.00;96473.78;1031361;28;20403;-68
2024/03/21 00:46:09;;;;;;;16.17;7.20;;;;;;;5.83;100.00;96468.19;1031465;28;20026;-69
2024/03/21 00:46:40;;;;;;;14.40;7.60;;;;;;;5.80;100.00;96475.63;1030632;28;20080;-68
2024/03/21 00:47:10;;;;;;;11.95;7.22;;;;;;;5.75;100.00;96465.88;1030703;28;20019;-69
2024/03/21 00:47:41;;;;;;;12.80;7.40;;;;;;;5.71;100.00;96471.72;1026779;28;20019;-68
2024/03/21 00:48:11;;;;;;;11.05;6.82;;;;;;;5.67;100.00;96466.16;1028984;28;20480;-67
2024/03/21 00:48:42;;;;;;;12.40;7.03;;;;;;;5.66;100.00;96467.13;1026661;28;20822;-70
2024/03/21 00:49:13;;;;;;;11.98;6.97;;;;;;;5.65;100.00;96465.56;1033054;28;20036;-69
2024/03/21 00:49:43;;;;;;;13.13;7.22;;;;;;;5.65;100.00;96466.34;1029418;28;20041;-69
2024/03/21 00:50:14;;;;;;;12.45;7.28;;;;;;;5.65;100.00;96475.97;1026756;28;20389;-69
2024/03/21 00:50:44;;;;;;;16.20;6.88;;;;;;;5.62;100.00;96465.97;1028314;28;20477;-69
2024/03/21 00:51:15;;;;;;;15.80;7.68;;;;;;;5.62;100.00;96471.19;1034837;28;20188;-67
2024/03/21 00:51:45;;;;;;;14.15;7.60;;;;;;;5.60;100.00;96467.97;1034993;28;20030;-66
2024/03/21 00:52:15;;;;;;;14.23;7.40;;;;;;;5.62;100.00;96466.78;1030590;28;20019;-69
2024/03/21 00:52:46;;;;;;;12.45;7.38;;;;;;;5.64;100.00;96474.38;1030433;28;20538;-69
2024/03/21 00:53:16;;;;;;;11.85;7.50;;;;;;;5.63;100.00;96468.38;1030775;28;20675;-69
2024/03/21 00:53:47;;;;;;;14.13;7.03;;;;;;;5.62;100.00;96471.19;1034581;28;20372;-70
2024/03/21 00:54:17;;;;;;;12.18;7.05;;;;;;;5.63;100.00;96467.56;1038906;28;20434;-69
2024/03/21 00:54:48;;;;;;;10.90;6.80;;;;;;;5.63;100.00;96472.78;1038465;28;20041;-69
2024/03/21 00:55:18;;;;;;;12.68;6.97;;;;;;;5.65;100.00;96475.97;1030655;28;20369;-69
2024/03/21 00:55:49;;;;;;;14.27;7.45;;;;;;;5.66;100.00;96469.75;1026699;28;20291;-69
2024/03/21 00:56:19;;;;;;;13.75;6.72;;;;;;;5.67;100.00;96469.53;1022464;28;20095;-70
2024/03/21 00:56:49;;;;;;;13.20;7.40;;;;;;;5.68;100.00;96468.53;1022578;28;20034;-68
2024/03/21 00:57:21;;;;;;;15.55;7.95;;;;;;;5.69;100.00;96466.72;1027147;28;20019;-70
2024/03/21 00:57:52;;;;;;;10.57;7.25;;;;;;;5.68;100.00;96467.72;1031903;28;20062;-69
2024/03/21 00:58:22;;;;;;;12.68;7.95;;;;;;;5.67;100.00;96468.75;1030622;28;20033;-69
2024/03/21 00:58:58;;;;;;;15.68;7.55;;;;;;;5.68;100.00;96465.91;1034859;28;20022;-70
2024/03/21 00:59:28;;;;;;;11.73;7.35;;;;;;;5.70;100.00;96467.50;1035563;28;20044;-69
2024/03/21 00:59:59;;;;;;;15.27;8.50;;;;;;;5.68;100.00;96465.91;1036462;28;20085;-68
2024/03/21 01:00:29;;;;;;;11.60;7.22;;;;;;;5.72;100.00;96471.50;1039146;28;20049;-68
2024/03/21 01:01:00;;;;;;;11.38;6.78;;;;;;;5.70;100.00;96468.31;1035307;28;20371;-69
2024/03/21 01:01:30;;;;;;;17.00;7.57;;;;;;;5.72;100.00;96470.72;1035640;28;20068;-69
2024/03/21 01:02:01;;;;;;;14.70;7.53;;;;;;;5.80;100.00;96473.84;1035297;28;20032;-69
2024/03/21 01:02:31;;;;;;;11.35;7.05;;;;;;;5.84;100.00;96475.00;1035721;28;20018;-69
2024/03/21 01:03:02;;;;;;;11.90;7.00;;;;;;;5.83;100.00;96468.19;1035389;28;20013;-68
2024/03/21 01:03:32;;;;;;;13.00;7.20;;;;;;;5.89;100.00;96471.75;1026681;28;20519;-69
2024/03/21 01:04:03;;;;;;;12.82;7.25;;;;;;;5.93;100.00;96469.53;1019902;29;20012;-68
2024/03/21 01:04:34;;;;;;;12.90;6.88;;;;;;;5.95;100.00;96465.72;1023335;29;20136;-69
2024/03/21 01:05:06;;;;;;;9.77;6.45;;;;;;;5.99;100.00;96476.50;1026974;28;20480;-69
2024/03/21 01:05:36;;;;;;;18.08;7.43;;;;;;;6.01;100.00;96464.88;1023588;28;20023;-69
2024/03/21 01:06:07;;;;;;;13.52;7.85;;;;;;;6.02;100.00;96465.66;1023977;28;20027;-69
2024/03/21 01:06:37;;;;;;;13.23;7.43;;;;;;;6.02;100.00;96469.06;1027644;28;20085;-69
2024/03/21 01:07:08;;;;;;;12.32;6.88;;;;;;;6.01;100.00;96464.88;1027567;28;20023;-69
2024/03/21 01:07:39;;;;;;;12.52;7.50;;;;;;;6.00;100.00;96462.47;1035364;28;20021;-70
2024/03/21 01:08:09;;;;;;;11.88;6.85;;;;;;;6.05;100.00;96465.22;1035603;28;20394;-69
2024/03/21 01:08:40;;;;;;;12.65;6.72;;;;;;;6.11;100.00;96464.38;1030653;28;20025;-69
2024/03/21 01:09:18;;;;;;;11.00;7.13;;;;;;;6.12;100.00;96461.53;1031382;28;20015;-69
2024/03/21 01:09:48;;;;;;;11.57;6.88;;;;;;;6.09;100.00;96455.97;1028148;28;20045;-68
2024/03/21 01:10:19;;;;;;;12.52;7.30;;;;;;;6.01;100.00;96459.66;1033216;28;20141;-69
2024/03/21 01:10:50;;;;;;;10.65;7.15;;;;;;;6.05;100.00;96460.81;1027613;28;20069;-70
2024/03/21 01:11:20;;;;;;;12.60;6.78;;;;;;;6.10;100.00;96460.16;1027472;28;20081;-69
2024/03/21 01:11:52;;;;;;;10.98;6.90;;;;;;;6.10;100.00;96458.38;1027088;28;20341;-69
2024/03/21 01:12:22;;;;;;;9.20;6.63;;;;;;;6.10;100.00;96457.56;1027127;28;20083;-68
2024/03/21 01:12:53;;;;;;;9.82;6.57;;;;;;;6.09;100.00;96456.75;1027470;28;20565;-70
2024/03/21 01:13:23;;;;;;;10.15;6.90;;;;;;;6.08;100.00;96455.19;1027866;28;20523;-68
2024/03/21 01:13:54;;;;;;;12.60;6.78;;;;;;;6.12;100.00;96464.16;1031606;28;20052;-69
2024/03/21 01:14:27;;;;;;;11.70;7.28;;;;;;;6.07;100.00;96452.75;1031525;28;20030;-69
2024/03/21 01:14:57;;;;;;;12.65;7.47;;;;;;;6.12;100.00;96463.34;1035635;28;20033;-68
2024/03/21 01:15:30;;;;;;;14.55;7.60;;;;;;;6.17;100.00;96457.47;1035341;28;20493;-69
2024/03/21 01:16:00;;;;;;;12.88;7.30;;;;;;;6.21;100.00;96463.88;1028191;28;20023;-69
2024/03/21 01:16:30;;;;;;;15.63;7.47;;;;;;;6.21;100.00;96463.88;1023498;29;20025;-70
2024/03/21 01:17:01;;;;;;;12.35;7.05;;;;;;;6.20;100.00;96462.25;1023391;29;20023;-68
2024/03/21 01:17:32;;;;;;;11.68;6.95;;;;;;;6.14;100.00;96458.72;1023075;28;20027;-69
2024/03/21 01:18:06;;;;;;;11.60;7.18;;;;;;;6.12;100.00;96452.94;1031074;28;20027;-70
2024/03/21 01:18:38;;;;;;;10.15;7.13;;;;;;;6.11;100.00;96457.34;1034962;28;20029;-70
2024/03/21 01:19:09;;;;;;;11.93;7.45;;;;;;;6.04;100.00;96451.41;1037970;28;20092;-69
2024/03/21 01:19:39;;;;;;;11.68;6.80;;;;;;;6.09;100.00;96451.53;1039481;28;20022;-69
2024/03/21 01:20:10;;;;;;;13.25;6.70;;;;;;;5.99;100.00;96446.03;1034431;28;20066;-68
2024/03/21 01:20:41;;;;;;;11.45;6.93;;;;;;;6.00;100.00;96455.47;1027293;28;20102;-70
2024/03/21 01:21:12;;;;;;;16.67;7.53;;;;;;;5.99;100.00;96455.66;1031373;28;20020;-68
2024/03/21 01:21:42;;;;;;;10.88;6.45;;;;;;;6.00;100.00;96458.06;1031672;28;20018;-69
2024/03/21 01:22:13;;;;;;;12.68;7.05;;;;;;;6.01;100.00;96459.66;1027008;28;20400;-69
2024/03/21 01:22:43;;;;;;;10.70;6.47;;;;;;;6.00;100.00;96457.25;1027361;28;20026;-67
2024/03/21 01:23:14;;;;;;;11.98;7.43;;;;;;;5.93;100.00;96451.31;1027820;28;20035;-70
2024/03/21 01:23:44;;;;;;;11.93;7.32;;;;;;;5.93;100.00;96452.09;1031405;28;20069;-69
2024/03/21 01:24:15;;;;;;;12.18;7.25;;;;;;;5.90;100.00;96453.31;1030998;28;20018;-69
2024/03/21 01:24:48;;;;;;;12.70;7.75;;;;;;;5.90;100.00;96455.09;1027636;28;20179;-69
2024/03/21 01:25:18;;;;;;;10.82;7.18;;;;;;;5.92;100.00;96455.69;1027651;28;20027;-70
2024/03/21 01:25:49;;;;;;;12.73;6.93;;;;;;;5.81;100.00;96433.78;1027802;28;20031;-69
2024/03/21 01:26:19;;;;;;;12.80;7.47;;;;;;;5.89;100.00;96451.72;1027561;28;20034;-69
2024/03/21 01:26:50;;;;;;;11.38;7.40;;;;;;;5.87;100.00;96448.53;1031766;28;20073;-69
2024/03/21 01:27:20;;;;;;;11.63;7.13;;;;;;;5.87;100.00;96445.16;1035271;28;20030;-70
2024/03/21 01:27:51;;;;;;;11.93;7.63;;;;;;;5.85;100.00;96445.34;1035500;28;20033;-69
2024/03/21 01:28:21;;;;;;;11.15;7.00;;;;;;;5.87;100.00;96452.97;1030692;28;20022;-70
2024/03/21 01:28:53;;;;;;;12.32;7.25;;;;;;;5.77;100.00;96437.81;1027602;28;20110;-70
2024/03/21 01:29:23;;;;;;;14.10;7.57;;;;;;;5.82;100.00;96448.38;1027994;28;20132;-68
2024/03/21 01:29:54;;;;;;;11.05;7.00;;;;;;;5.81;100.00;96449.41;1026962;28;20042;-70
2024/03/21 01:30:24;;;;;;;10.80;6.60;;;;;;;5.79;100.00;96443.59;1032265;28;20783;-68
2024/03/21 01:30:55;;;;;;;14.40;7.88;;;;;;;5.78;100.00;96444.63;1038445;28;20544;-69
2024/03/21 01:31:25;;;;;;;13.35;6.72;;;;;;;5.80;100.00;96447.81;1035688;28;20588;-69
2024/03/21 01:31:55;;;;;;;11.48;7.40;;;;;;;5.83;100.00;96449.16;1024832;28;20504;-69
2024/03/21 01:32:26;;;;;;;15.15;7.65;;;;;;;5.81;100.00;96449.41;1027321;28;20023;-68
2024/03/21 01:32:57;;;;;;;11.35;7.68;;;;;;;5.80;100.00;96450.41;1029065;28;20026;-69
2024/03/21 01:33:28;;;;;;;12.68;7.20;;;;;;;5.87;100.00;96450.34;1030221;28;20029;-69
2024/03/21 01:33:59;;;;;;;13.15;7.38;;;;;;;5.90;100.00;96461.13;1036788;28;20033;-69
2024/03/21 01:34:29;;;;;;;11.93;6.95;;;;;;;5.93;100.00;96457.31;1041487;28;20489;-69
2024/03/21 01:35:00;;;;;;;10.77;7.15;;;;;;;5.94;100.00;96455.53;1039511;28;20057;-69
2024/03/21 01:35:31;;;;;;;13.43;7.50;;;;;;;5.95;100.00;96454.50;1039732;28;20025;-68
2024/03/21 01:36:01;;;;;;;12.27;6.85;;;;;;;5.94;100.00;96450.31;1037552;28;20033;-69
2024/03/21 01:36:34;;;;;;;11.88;6.90;;;;;;;5.96;100.00;96456.09;1031101;28;20022;-68
2024/03/21 01:37:05;;;;;;;11.75;7.40;;;;;;;5.97;100.00;96457.69;1031709;28;20045;-69
2024/03/21 01:37:35;;;;;;;9.40;6.40;;;;;;;5.97;100.00;96462.88;1036049;28;20554;-69
2024/03/21 01:38:06;;;;;;;11.30;6.72;;;;;;;5.95;100.00;96452.69;1032068;28;20046;-68
2024/03/21 01:38:39;;;;;;;11.02;6.95;;;;;;;5.77;100.00;96427.41;1034792;28;20030;-69
2024/03/21 01:39:09;;;;;;;10.10;6.72;;;;;;;5.96;100.00;96450.88;1027229;28;20015;-69
2024/03/21 01:39:40;;;;;;;13.18;6.75;;;;;;;5.89;100.00;96438.69;1029958;28;20023;-69
2024/03/21 01:40:11;;;;;;;12.27;7.20;;;;;;;5.96;100.00;96448.28;1039274;28;20028;-69
2024/03/21 01:40:41;;;;;;;10.68;6.88;;;;;;;5.97;100.00;96449.88;1035505;28;20025;-70
2024/03/21 01:41:12;;;;;;;11.30;6.95;;;;;;;5.93;100.00;96440.91;1040990;28;20032;-69
2024/03/21 01:41:42;;;;;;;12.73;6.80;;;;;;;5.95;100.00;96454.50;1027155;28;20028;-71
2024/03/21 01:42:17;;;;;;;11.38;6.50;;;;;;;5.97;100.00;96453.28;1023630;28;20127;-70
2024/03/21 01:42:49;;;;;;;8.57;6.20;;;;;;;5.97;100.00;96452.47;1027052;28;20039;-69
2024/03/21 01:43:24;;;;;;;9.98;6.18;;;;;;;5.99;100.00;96446.03;1033003;28;20126;-70
2024/03/21 01:43:54;;;;;;;9.77;6.63;;;;;;;5.96;100.00;96440.47;1031385;28;20109;-69
2024/03/21 01:44:25;;;;;;;11.77;5.97;;;;;;;5.99;100.00;96451.25;1024088;28;20497;-69
2024/03/21 01:45:06;;;;;;;7.97;6.07;;;;;;;5.99;100.00;96446.03;1019537;29;20474;-71
2024/03/21 01:45:38;;;;;;;7.63;5.72;;;;;;;6.00;100.00;96446.81;1031295;28;20121;-70
2024/03/21 01:46:18;;;;;;;10.48;6.63;;;;;;;6.00;100.00;96446.81;1027363;28;20511;-68
2024/03/21 01:46:49;;;;;;;;;;;;;;;5.98;100.00;96449.66;1023767;29;20035;-69
2024/03/21 01:47:22;;;;;;;11.13;5.97;;;;;;;5.93;100.00;96436.47;1020979;29;19914;-70
2024/03/21 01:47:52;;;;;;;11.55;5.45;;;;;;;6.00;100.00;96442.44;1029287;28;20058;-69
2024/03/21 01:48:22;;;;;;;12.57;6.45;;;;;;;5.97;100.00;96442.88;1033170;28;20490;-68
2024/03/21 01:48:53;;;;;;;10.32;6.15;;;;;;;5.96;100.00;96433.44;1035652;28;20018;-68
2024/03/21 01:49:23;;;;;;;10.18;5.95;;;;;;;5.99;100.00;96432.22;1035291;28;20018;-71
2024/03/21 01:49:54;;;;;;;10.90;6.25;;;;;;;6.02;100.00;96442.22;1031009;28;20026;-69
2024/03/21 01:50:28;;;;;;;9.38;6.07;;;;;;;6.02;100.00;96439.59;1031668;28;20014;-69
2024/03/21 01:50:58;;;;;;;9.50;5.55;;;;;;;5.97;100.00;96429.84;1031275;28;20033;-70
2024/03/21 01:51:29;;;;;;;11.25;6.45;;;;;;;5.94;100.00;96424.28;1027082;28;20515;-69
2024/03/21 01:51:59;;;;;;;16.60;6.05;;;;;;;5.97;100.00;96426.41;1023569;29;20015;-69
2024/03/21 01:52:30;;;;;;;11.65;6.13;;;;;;;6.01;100.00;96428.41;1031340;28;20073;-70
2024/03/21 01:53:00;;;;;;;8.60;5.47;;;;;;;6.04;100.00;96433.19;1035392;28;20017;-69
2024/03/21 01:53:30;;;;;;;9.05;5.70;;;;;;;6.01;100.00;96425.78;1035299;28;20014;-70
2024/03/21 01:54:01;;;;;;;7.68;5.93;;;;;;;6.04;100.00;96430.56;1023360;28;20016;-69
2024/03/21 01:54:33;;;;;;;10.20;5.57;;;;;;;5.97;100.00;96424.63;1035399;28;20021;-69
2024/03/21 01:55:06;;;;;;;9.10;5.78;;;;;;;6.05;100.00;96434.75;1035444;28;20006;-69
2024/03/21 01:55:36;;;;;;;9.73;5.63;;;;;;;6.05;100.00;96429.56;1027166;28;20384;-70
2024/03/21 01:56:07;;;;;;;10.35;6.07;;;;;;;6.05;100.00;96433.97;1027378;28;20019;-68
2024/03/21 01:56:37;;;;;;;8.85;5.78;;;;;;;6.00;100.00;96420.78;1023091;28;20103;-70
2024/03/21 01:57:09;;;;;;;8.95;5.80;;;;;;;5.99;100.00;96425.19;1023343;28;20015;-69
2024/03/21 01:57:39;;;;;;;11.77;5.40;;;;;;;5.99;100.00;96422.59;1031238;28;20025;-69
2024/03/21 01:58:09;;;;;;;9.32;5.82;;;;;;;6.02;100.00;96429.19;1027421;28;20050;-69
2024/03/21 01:58:40;;;;;;;8.43;5.28;;;;;;;6.02;100.00;96423.97;1028978;28;20073;-69
2024/03/21 01:59:11;;;;;;;7.97;5.22;;;;;;;6.00;100.00;96423.38;1026984;28;20015;-70
2024/03/21 01:59:41;;;;;;;8.30;5.55;;;;;;;6.02;100.00;96423.97;1023110;29;20114;-68
2024/03/21 02:00:12;;;;;;;12.45;5.53;;;;;;;6.08;100.00;96423.91;1027882;28;20014;-69
2024/03/21 02:00:42;;;;;;;7.55;4.88;;;;;;;6.07;100.00;96432.75;1031271;28;20022;-69
2024/03/21 02:01:20;;;;;;;9.40;6.15;;;;;;;6.04;100.00;96427.19;1031609;28;20030;-69
2024/03/21 02:01:52;;;;;;;8.52;5.60;;;;;;;6.04;100.00;96421.97;1031822;28;20018;-69
2024/03/21 02:02:23;;;;;;;7.80;5.50;;;;;;;6.04;100.00;96421.97;1039451;28;20009;-68
2024/03/21 02:02:54;;;;;;;10.27;5.72;;;;;;;6.04;100.00;96422.75;1035564;28;20100;-70
2024/03/21 02:03:25;;;;;;;7.97;5.32;;;;;;;6.02;100.00;96418.78;1031239;28;20050;-69
2024/03/21 02:04:03;;;;;;;7.78;5.53;;;;;;;6.03;100.00;96417.75;1026512;28;20078;-70
2024/03/21 02:04:34;;;;;;;9.65;5.47;;;;;;;6.01;100.00;96417.19;1024353;28;20054;-69
2024/03/21 02:05:04;;;;;;;7.53;5.10;;;;;;;5.95;100.00;96403.22;1028425;28;20073;-69
2024/03/21 02:05:35;;;;;;;9.27;5.07;;;;;;;5.99;100.00;96411.38;1028576;28;20090;-69
2024/03/21 02:06:05;;;;;;;7.65;5.38;;;;;;;6.02;100.00;96416.94;1030819;28;20488;-69
2024/03/21 02:06:36;;;;;;;11.27;5.65;;;;;;;6.02;100.00;96413.56;1031475;28;20329;-69
2024/03/21 02:07:08;;;;;;;12.88;5.45;;;;;;;6.01;100.00;96410.16;1025471;28;20015;-69
2024/03/21 02:07:39;;;;;;;7.00;5.28;;;;;;;6.00;100.00;96416.41;1023850;28;20085;-68
2024/03/21 02:08:10;;;;;;;10.27;5.50;;;;;;;6.03;100.00;96415.13;1031302;28;20467;-69
2024/03/21 02:08:40;;;;;;;10.55;4.65;;;;;;;6.00;100.00;96405.97;1031564;28;20015;-69
2024/03/21 02:09:11;;;;;;;10.63;5.45;;;;;;;6.02;100.00;96408.34;1035316;28;20450;-69
2024/03/21 02:09:41;;;;;;;10.65;5.63;;;;;;;6.01;100.00;96410.16;1031496;28;20387;-69
2024/03/21 02:10:12;;;;;;;10.73;5.93;;;;;;;6.00;100.00;96405.16;1023198;28;20632;-68
2024/03/21 02:10:42;;;;;;;11.95;5.82;;;;;;;6.01;100.00;96401.56;1031373;28;20830;-69
2024/03/21 02:11:12;;;;;;;10.77;5.28;;;;;;;5.94;100.00;96396.41;1035323;28;20494;-70
2024/03/21 02:11:43;;;;;;;7.85;5.50;;;;;;;5.94;100.00;96399.03;1035472;28;20506;-69
2024/03/21 02:12:14;;;;;;;7.25;4.53;;;;;;;5.98;100.00;96407.19;1039133;28;20024;-70
2024/03/21 02:12:48;;;;;;;8.90;5.63;;;;;;;5.89;100.00;96391.81;1035247;28;20517;-67
2024/03/21 02:13:18;;;;;;;7.82;5.20;;;;;;;5.97;100.00;96401.19;1031274;28;20026;-68
2024/03/21 02:13:51;;;;;;;8.60;5.00;;;;;;;5.90;100.00;96396.03;1027183;28;20625;-69
2024/03/21 02:14:22;;;;;;;8.00;5.13;;;;;;;5.90;100.00;96396.03;1024078;28;20058;-69
2024/03/21 02:14:52;;;;;;;14.52;6.20;;;;;;;5.94;100.00;96400.84;1024208;28;20653;-69
2024/03/21 02:15:23;;;;;;;8.50;4.75;;;;;;;5.91;100.00;96399.41;1027194;28;20814;-70
2024/03/21 02:15:53;;;;;;;7.90;5.22;;;;;;;5.90;100.00;96398.63;1027465;28;20424;-70
2024/03/21 02:16:24;;;;;;;9.38;5.00;;;;;;;5.84;100.00;96386.47;1023223;28;20104;-70
2024/03/21 02:16:54;;;;;;;10.30;5.07;;;;;;;5.90;100.00;96403.84;1027379;28;20169;-69
2024/03/21 02:17:24;;;;;;;8.32;4.65;;;;;;;5.83;100.00;96395.28;1031187;28;20026;-70
2024/03/21 02:17:55;;;;;;;9.80;4.55;;;;;;;5.92;100.00;96403.59;1035448;28;20093;-68
2024/03/21 02:18:26;;;;;;;7.18;4.90;;;;;;;5.90;100.00;96401.22;1030485;28;20027;-69
2024/03/21 02:18:56;;;;;;;6.15;4.40;;;;;;;5.90;100.00;96400.41;1027333;28;20555;-68
2024/03/21 02:19:26;;;;;;;6.32;4.88;;;;;;;5.94;100.00;96400.84;1027342;28;20534;-70
2024/03/21 02:19:57;;;;;;;10.20;4.90;;;;;;;5.88;100.00;96400.63;1023875;28;20417;-68
2024/03/21 02:20:27;;;;;;;7.75;4.75;;;;;;;5.92;100.00;96398.41;1027290;28;20022;-69
2024/03/21 02:20:58;;;;;;;6.93;4.30;;;;;;;5.92;100.00;96398.41;1030731;28;20030;-70
2024/03/21 02:22:35;;;;;;;6.10;4.35;;;;;;;5.96;100.00;96404.00;1032823;28;20150;-71
2024/03/21 02:23:06;;;;;;;6.75;4.05;;;;;;;5.95;100.00;96398.00;1032489;28;20076;-69
2024/03/21 02:23:36;;;;;;;7.40;4.10;;;;;;;5.96;100.00;96398.78;1031463;28;20031;-69
2024/03/21 02:24:07;;;;;;;9.93;4.28;;;;;;;5.95;100.00;96405.03;1031264;28;20093;-70
2024/03/21 02:24:37;;;;;;;6.40;4.25;;;;;;;5.91;100.00;96395.00;1031430;28;20105;-70
2024/03/21 02:25:11;;;;;;;9.05;5.15;;;;;;;5.89;100.00;96399.63;1027384;28;20019;-68
2024/03/21 02:25:42;;;;;;;6.25;4.72;;;;;;;5.90;100.00;96396.03;1027411;28;20045;-69